sensor_id;sensor_type;location;lat;lon;timestamp;P1;durP1;ratioP1;P2;durP2;ratioP2
71296;SDS011;59082;50.658;4.608;2023-03-01T00:02:20;10.65;;;7.10;;
71296;SDS011;59082;50.658;4.608;2023-03-01T00:04:46;7.23;;;6.53;;
71296;SDS011;59082;50.658;4.608;2023-03-01T00:07:11;11.57;;;8.60;;
71296;SDS011;59082;50.658;4.608;2023-03-01T00:09:37;10.05;;;6.95;;
71296;SDS011;59082;50.658;4.608;2023-03-01T00:12:03;15.93;;;7.88;;
71296;SDS011;59082;50.658;4.608;2023-03-01T00:14:29;10.32;;;7.18;;
71296;SDS011;59082;50.658;4.608;2023-03-01T00:16:56;8.00;;;6.17;;
71296;SDS011;59082;50.658;4.608;2023-03-01T00:19:21;11.45;;;7.28;;
71296;SDS011;59082;50.658;4.608;2023-03-01T00:21:47;8.73;;;7.70;;
71296;SDS011;59082;50.658;4.608;2023-03-01T00:24:13;8.80;;;7.00;;
71296;SDS011;59082;50.658;4.608;2023-03-01T00:26:40;8.60;;;7.03;;
71296;SDS011;59082;50.658;4.608;2023-03-01T00:29:05;10.27;;;7.17;;
71296;SDS011;59082;50.658;4.608;2023-03-01T00:31:32;10.05;;;8.20;;
71296;SDS011;59082;50.658;4.608;2023-03-01T00:33:58;8.85;;;7.25;;
71296;SDS011;59082;50.658;4.608;2023-03-01T00:36:30;12.73;;;8.13;;
71296;SDS011;59082;50.658;4.608;2023-03-01T00:38:58;9.77;;;6.47;;
71296;SDS011;59082;50.658;4.608;2023-03-01T00:41:24;10.88;;;7.32;;
71296;SDS011;59082;50.658;4.608;2023-03-01T00:43:51;10.75;;;7.82;;
71296;SDS011;59082;50.658;4.608;2023-03-01T00:46:21;8.77;;;6.53;;
71296;SDS011;59082;50.658;4.608;2023-03-01T00:48:49;11.00;;;7.88;;
71296;SDS011;59082;50.658;4.608;2023-03-01T00:51:17;10.63;;;7.57;;
71296;SDS011;59082;50.658;4.608;2023-03-01T00:53:44;11.52;;;7.57;;
71296;SDS011;59082;50.658;4.608;2023-03-01T00:56:11;12.98;;;7.65;;
71296;SDS011;59082;50.658;4.608;2023-03-01T00:58:38;10.90;;;8.23;;
71296;SDS011;59082;50.658;4.608;2023-03-01T01:01:07;8.98;;;7.65;;
71296;SDS011;59082;50.658;4.608;2023-03-01T01:03:47;8.20;;;6.55;;
71296;SDS011;59082;50.658;4.608;2023-03-01T01:06:18;10.05;;;7.50;;
71296;SDS011;59082;50.658;4.608;2023-03-01T01:08:45;10.30;;;7.05;;
71296;SDS011;59082;50.658;4.608;2023-03-01T01:11:12;10.85;;;6.72;;
71296;SDS011;59082;50.658;4.608;2023-03-01T01:13:39;9.30;;;6.68;;
71296;SDS011;59082;50.658;4.608;2023-03-01T01:16:05;10.48;;;8.07;;
71296;SDS011;59082;50.658;4.608;2023-03-01T01:18:31;11.10;;;6.80;;
71296;SDS011;59082;50.658;4.608;2023-03-01T01:20:56;9.37;;;6.50;;
71296;SDS011;59082;50.658;4.608;2023-03-01T01:23:22;8.65;;;5.95;;
71296;SDS011;59082;50.658;4.608;2023-03-01T01:25:47;9.43;;;6.70;;
71296;SDS011;59082;50.658;4.608;2023-03-01T01:28:13;13.48;;;7.55;;
71296;SDS011;59082;50.658;4.608;2023-03-01T01:30:38;9.50;;;6.87;;
71296;SDS011;59082;50.658;4.608;2023-03-01T01:33:04;8.17;;;6.73;;
71296;SDS011;59082;50.658;4.608;2023-03-01T01:35:31;10.32;;;6.93;;
71296;SDS011;59082;50.658;4.608;2023-03-01T01:37:56;11.20;;;7.50;;
71296;SDS011;59082;50.658;4.608;2023-03-01T01:40:21;9.63;;;6.95;;
71296;SDS011;59082;50.658;4.608;2023-03-01T01:42:47;11.23;;;7.53;;
71296;SDS011;59082;50.658;4.608;2023-03-01T01:45:30;10.63;;;7.53;;
71296;SDS011;59082;50.658;4.608;2023-03-01T01:48:04;11.18;;;7.63;;
71296;SDS011;59082;50.658;4.608;2023-03-01T01:50:35;11.30;;;7.88;;
71296;SDS011;59082;50.658;4.608;2023-03-01T01:53:12;12.13;;;7.55;;
71296;SDS011;59082;50.658;4.608;2023-03-01T01:55:43;8.23;;;6.47;;
71296;SDS011;59082;50.658;4.608;2023-03-01T01:58:14;11.13;;;6.45;;
71296;SDS011;59082;50.658;4.608;2023-03-01T02:00:42;11.63;;;7.90;;
71296;SDS011;59082;50.658;4.608;2023-03-01T02:03:10;10.02;;;7.90;;
71296;SDS011;59082;50.658;4.608;2023-03-01T02:05:43;10.15;;;6.80;;
71296;SDS011;59082;50.658;4.608;2023-03-01T02:08:13;12.27;;;7.13;;
71296;SDS011;59082;50.658;4.608;2023-03-01T02:10:41;11.57;;;7.70;;
71296;SDS011;59082;50.658;4.608;2023-03-01T02:13:07;10.48;;;7.97;;
71296;SDS011;59082;50.658;4.608;2023-03-01T02:15:33;10.03;;;7.30;;
71296;SDS011;59082;50.658;4.608;2023-03-01T02:18:00;13.30;;;8.02;;
71296;SDS011;59082;50.658;4.608;2023-03-01T02:20:34;8.88;;;6.97;;
71296;SDS011;59082;50.658;4.608;2023-03-01T02:23:09;8.88;;;7.50;;
71296;SDS011;59082;50.658;4.608;2023-03-01T02:30:59;11.00;;;6.82;;
71296;SDS011;59082;50.658;4.608;2023-03-01T02:33:45;9.10;;;6.67;;
71296;SDS011;59082;50.658;4.608;2023-03-01T02:36:17;10.10;;;6.93;;
71296;SDS011;59082;50.658;4.608;2023-03-01T02:38:58;10.02;;;7.38;;
71296;SDS011;59082;50.658;4.608;2023-03-01T02:41:26;10.27;;;7.88;;
71296;SDS011;59082;50.658;4.608;2023-03-01T02:43:55;10.60;;;6.82;;
71296;SDS011;59082;50.658;4.608;2023-03-01T02:46:23;12.10;;;7.77;;
71296;SDS011;59082;50.658;4.608;2023-03-01T02:48:52;10.48;;;6.85;;
71296;SDS011;59082;50.658;4.608;2023-03-01T02:54:15;8.05;;;7.10;;
71296;SDS011;59082;50.658;4.608;2023-03-01T02:57:08;11.77;;;6.57;;
71296;SDS011;59082;50.658;4.608;2023-03-01T02:59:34;10.57;;;7.40;;
71296;SDS011;59082;50.658;4.608;2023-03-01T03:02:04;13.30;;;8.10;;
71296;SDS011;59082;50.658;4.608;2023-03-01T03:04:31;9.15;;;6.20;;
71296;SDS011;59082;50.658;4.608;2023-03-01T03:06:57;12.63;;;8.73;;
71296;SDS011;59082;50.658;4.608;2023-03-01T03:09:22;10.18;;;7.97;;
71296;SDS011;59082;50.658;4.608;2023-03-01T03:11:48;10.60;;;7.90;;
71296;SDS011;59082;50.658;4.608;2023-03-01T03:14:16;11.30;;;7.45;;
71296;SDS011;59082;50.658;4.608;2023-03-01T03:16:42;11.10;;;6.97;;
71296;SDS011;59082;50.658;4.608;2023-03-01T03:19:11;11.80;;;7.53;;
71296;SDS011;59082;50.658;4.608;2023-03-01T03:21:37;10.50;;;7.63;;
71296;SDS011;59082;50.658;4.608;2023-03-01T03:24:02;11.55;;;7.47;;
71296;SDS011;59082;50.658;4.608;2023-03-01T03:26:29;11.57;;;7.70;;
71296;SDS011;59082;50.658;4.608;2023-03-01T03:28:55;12.70;;;7.57;;
71296;SDS011;59082;50.658;4.608;2023-03-01T03:31:20;10.18;;;7.00;;
71296;SDS011;59082;50.658;4.608;2023-03-01T03:33:46;10.07;;;7.27;;
71296;SDS011;59082;50.658;4.608;2023-03-01T03:36:18;10.20;;;7.05;;
71296;SDS011;59082;50.658;4.608;2023-03-01T03:38:46;11.63;;;8.15;;
71296;SDS011;59082;50.658;4.608;2023-03-01T03:41:12;13.48;;;7.75;;
71296;SDS011;59082;50.658;4.608;2023-03-01T03:43:39;11.02;;;7.35;;
71296;SDS011;59082;50.658;4.608;2023-03-01T03:46:07;11.48;;;7.95;;
71296;SDS011;59082;50.658;4.608;2023-03-01T03:48:35;11.52;;;7.28;;
71296;SDS011;59082;50.658;4.608;2023-03-01T03:51:03;10.68;;;7.22;;
71296;SDS011;59082;50.658;4.608;2023-03-01T03:53:33;8.77;;;7.45;;
71296;SDS011;59082;50.658;4.608;2023-03-01T03:55:58;11.75;;;7.82;;
71296;SDS011;59082;50.658;4.608;2023-03-01T03:58:24;12.87;;;8.63;;
71296;SDS011;59082;50.658;4.608;2023-03-01T04:00:54;11.50;;;8.40;;
71296;SDS011;59082;50.658;4.608;2023-03-01T04:03:22;18.27;;;8.73;;
71296;SDS011;59082;50.658;4.608;2023-03-01T04:05:50;10.50;;;8.18;;
71296;SDS011;59082;50.658;4.608;2023-03-01T04:08:17;9.80;;;7.10;;
71296;SDS011;59082;50.658;4.608;2023-03-01T04:10:46;10.18;;;7.55;;
71296;SDS011;59082;50.658;4.608;2023-03-01T04:13:15;12.02;;;8.38;;
71296;SDS011;59082;50.658;4.608;2023-03-01T04:15:44;10.57;;;8.07;;
71296;SDS011;59082;50.658;4.608;2023-03-01T04:18:12;10.57;;;8.23;;
71296;SDS011;59082;50.658;4.608;2023-03-01T04:20:38;12.63;;;8.23;;
71296;SDS011;59082;50.658;4.608;2023-03-01T04:23:05;10.18;;;8.00;;
71296;SDS011;59082;50.658;4.608;2023-03-01T04:25:39;11.05;;;8.30;;
71296;SDS011;59082;50.658;4.608;2023-03-01T04:28:07;11.73;;;8.60;;
71296;SDS011;59082;50.658;4.608;2023-03-01T04:30:33;11.30;;;8.73;;
71296;SDS011;59082;50.658;4.608;2023-03-01T04:33:01;10.82;;;7.68;;
71296;SDS011;59082;50.658;4.608;2023-03-01T04:35:31;12.60;;;8.77;;
71296;SDS011;59082;50.658;4.608;2023-03-01T04:37:57;11.02;;;8.63;;
71296;SDS011;59082;50.658;4.608;2023-03-01T04:40:23;12.10;;;7.93;;
71296;SDS011;59082;50.658;4.608;2023-03-01T04:42:50;9.65;;;7.55;;
71296;SDS011;59082;50.658;4.608;2023-03-01T04:45:16;11.97;;;8.13;;
71296;SDS011;59082;50.658;4.608;2023-03-01T04:47:42;12.73;;;8.02;;
71296;SDS011;59082;50.658;4.608;2023-03-01T04:50:10;11.73;;;8.93;;
71296;SDS011;59082;50.658;4.608;2023-03-01T04:52:38;14.10;;;8.53;;
71296;SDS011;59082;50.658;4.608;2023-03-01T04:55:04;12.00;;;8.30;;
71296;SDS011;59082;50.658;4.608;2023-03-01T04:57:30;9.60;;;7.60;;
71296;SDS011;59082;50.658;4.608;2023-03-01T04:59:57;15.18;;;9.30;;
71296;SDS011;59082;50.658;4.608;2023-03-01T05:02:23;13.23;;;9.02;;
71296;SDS011;59082;50.658;4.608;2023-03-01T05:04:49;10.63;;;8.73;;
71296;SDS011;59082;50.658;4.608;2023-03-01T05:07:14;13.57;;;8.60;;
71296;SDS011;59082;50.658;4.608;2023-03-01T05:09:47;14.82;;;9.27;;
71296;SDS011;59082;50.658;4.608;2023-03-01T05:12:13;13.57;;;8.98;;
71296;SDS011;59082;50.658;4.608;2023-03-01T05:14:40;9.48;;;7.97;;
71296;SDS011;59082;50.658;4.608;2023-03-01T05:17:07;10.70;;;7.73;;
71296;SDS011;59082;50.658;4.608;2023-03-01T05:19:33;9.80;;;8.23;;
71296;SDS011;59082;50.658;4.608;2023-03-01T05:21:59;12.60;;;9.65;;
71296;SDS011;59082;50.658;4.608;2023-03-01T05:24:32;13.18;;;8.75;;
71296;SDS011;59082;50.658;4.608;2023-03-01T05:26:59;12.73;;;8.93;;
71296;SDS011;59082;50.658;4.608;2023-03-01T05:29:26;14.55;;;9.05;;
71296;SDS011;59082;50.658;4.608;2023-03-01T05:31:57;14.38;;;8.60;;
71296;SDS011;59082;50.658;4.608;2023-03-01T05:34:25;13.05;;;9.38;;
71296;SDS011;59082;50.658;4.608;2023-03-01T05:36:52;12.52;;;8.75;;
71296;SDS011;59082;50.658;4.608;2023-03-01T05:39:19;11.37;;;8.93;;
71296;SDS011;59082;50.658;4.608;2023-03-01T05:41:47;11.63;;;9.45;;
71296;SDS011;59082;50.658;4.608;2023-03-01T05:44:16;12.13;;;8.93;;
71296;SDS011;59082;50.658;4.608;2023-03-01T05:46:42;13.63;;;9.40;;
71296;SDS011;59082;50.658;4.608;2023-03-01T05:49:08;13.02;;;8.65;;
71296;SDS011;59082;50.658;4.608;2023-03-01T05:51:33;11.07;;;8.73;;
71296;SDS011;59082;50.658;4.608;2023-03-01T05:53:59;11.85;;;8.63;;
71296;SDS011;59082;50.658;4.608;2023-03-01T05:56:26;14.97;;;9.87;;
71296;SDS011;59082;50.658;4.608;2023-03-01T05:58:51;10.75;;;8.32;;
71296;SDS011;59082;50.658;4.608;2023-03-01T06:01:17;15.87;;;9.03;;
71296;SDS011;59082;50.658;4.608;2023-03-01T06:03:42;10.43;;;8.25;;
71296;SDS011;59082;50.658;4.608;2023-03-01T06:06:08;13.63;;;11.47;;
71296;SDS011;59082;50.658;4.608;2023-03-01T06:08:33;16.03;;;11.00;;
71296;SDS011;59082;50.658;4.608;2023-03-01T06:10:59;12.90;;;9.63;;
71296;SDS011;59082;50.658;4.608;2023-03-01T06:13:24;11.93;;;9.30;;
71296;SDS011;59082;50.658;4.608;2023-03-01T06:15:50;12.07;;;9.27;;
71296;SDS011;59082;50.658;4.608;2023-03-01T06:18:16;12.38;;;8.98;;
71296;SDS011;59082;50.658;4.608;2023-03-01T06:20:42;14.73;;;10.00;;
71296;SDS011;59082;50.658;4.608;2023-03-01T06:23:07;12.73;;;9.07;;
71296;SDS011;59082;50.658;4.608;2023-03-01T06:25:33;15.17;;;9.47;;
71296;SDS011;59082;50.658;4.608;2023-03-01T06:27:58;11.20;;;8.37;;
71296;SDS011;59082;50.658;4.608;2023-03-01T06:30:24;10.98;;;7.30;;
71296;SDS011;59082;50.658;4.608;2023-03-01T06:32:51;13.98;;;9.98;;
71296;SDS011;59082;50.658;4.608;2023-03-01T06:35:17;15.98;;;10.18;;
71296;SDS011;59082;50.658;4.608;2023-03-01T06:37:44;17.63;;;10.50;;
71296;SDS011;59082;50.658;4.608;2023-03-01T06:40:11;13.73;;;10.75;;
71296;SDS011;59082;50.658;4.608;2023-03-01T06:42:39;14.23;;;9.77;;
71296;SDS011;59082;50.658;4.608;2023-03-01T06:45:06;13.80;;;10.07;;
71296;SDS011;59082;50.658;4.608;2023-03-01T06:47:33;15.50;;;10.13;;
71296;SDS011;59082;50.658;4.608;2023-03-01T06:49:59;13.73;;;9.70;;
71296;SDS011;59082;50.658;4.608;2023-03-01T06:52:26;12.77;;;9.57;;
71296;SDS011;59082;50.658;4.608;2023-03-01T06:54:52;11.60;;;8.27;;
71296;SDS011;59082;50.658;4.608;2023-03-01T06:57:18;11.07;;;8.43;;
71296;SDS011;59082;50.658;4.608;2023-03-01T06:59:43;16.37;;;9.90;;
71296;SDS011;59082;50.658;4.608;2023-03-01T07:02:10;18.17;;;10.30;;
71296;SDS011;59082;50.658;4.608;2023-03-01T07:04:37;12.88;;;10.55;;
71296;SDS011;59082;50.658;4.608;2023-03-01T07:07:04;15.70;;;9.50;;
71296;SDS011;59082;50.658;4.608;2023-03-01T07:09:30;13.25;;;10.52;;
71296;SDS011;59082;50.658;4.608;2023-03-01T07:11:56;16.48;;;10.55;;
71296;SDS011;59082;50.658;4.608;2023-03-01T07:14:22;15.43;;;10.23;;
71296;SDS011;59082;50.658;4.608;2023-03-01T07:17:02;14.13;;;10.23;;
71296;SDS011;59082;50.658;4.608;2023-03-01T07:19:27;13.57;;;10.88;;
71296;SDS011;59082;50.658;4.608;2023-03-01T07:21:53;18.67;;;12.20;;
71296;SDS011;59082;50.658;4.608;2023-03-01T07:24:21;13.93;;;10.60;;
71296;SDS011;59082;50.658;4.608;2023-03-01T07:26:50;14.27;;;9.73;;
71296;SDS011;59082;50.658;4.608;2023-03-01T07:29:17;14.13;;;10.27;;
71296;SDS011;59082;50.658;4.608;2023-03-01T07:31:42;15.23;;;10.70;;
71296;SDS011;59082;50.658;4.608;2023-03-01T07:34:08;11.43;;;9.00;;
71296;SDS011;59082;50.658;4.608;2023-03-01T07:36:34;14.50;;;9.95;;
71296;SDS011;59082;50.658;4.608;2023-03-01T07:39:00;14.88;;;10.00;;
71296;SDS011;59082;50.658;4.608;2023-03-01T07:41:27;16.20;;;10.30;;
71296;SDS011;59082;50.658;4.608;2023-03-01T07:43:53;14.65;;;10.38;;
71296;SDS011;59082;50.658;4.608;2023-03-01T07:46:18;16.90;;;10.17;;
71296;SDS011;59082;50.658;4.608;2023-03-01T07:48:45;13.07;;;9.98;;
71296;SDS011;59082;50.658;4.608;2023-03-01T07:51:11;14.00;;;9.48;;
71296;SDS011;59082;50.658;4.608;2023-03-01T07:53:37;12.63;;;9.07;;
71296;SDS011;59082;50.658;4.608;2023-03-01T07:56:10;13.73;;;10.75;;
71296;SDS011;59082;50.658;4.608;2023-03-01T07:58:38;11.07;;;8.37;;
71296;SDS011;59082;50.658;4.608;2023-03-01T08:01:05;16.45;;;9.65;;
71296;SDS011;59082;50.658;4.608;2023-03-01T08:03:33;12.73;;;10.20;;
71296;SDS011;59082;50.658;4.608;2023-03-01T08:05:59;11.43;;;8.27;;
71296;SDS011;59082;50.658;4.608;2023-03-01T08:08:25;10.40;;;9.15;;
71296;SDS011;59082;50.658;4.608;2023-03-01T08:10:51;12.83;;;9.90;;
71296;SDS011;59082;50.658;4.608;2023-03-01T08:13:23;10.27;;;8.98;;
71296;SDS011;59082;50.658;4.608;2023-03-01T08:16:01;10.57;;;8.75;;
71296;SDS011;59082;50.658;4.608;2023-03-01T08:18:31;13.73;;;9.60;;
71296;SDS011;59082;50.658;4.608;2023-03-01T08:21:07;11.45;;;9.45;;
71296;SDS011;59082;50.658;4.608;2023-03-01T08:23:34;14.98;;;9.77;;
71296;SDS011;59082;50.658;4.608;2023-03-01T08:26:06;11.67;;;9.17;;
71296;SDS011;59082;50.658;4.608;2023-03-01T08:28:37;11.32;;;8.18;;
71296;SDS011;59082;50.658;4.608;2023-03-01T08:31:13;11.68;;;9.45;;
71296;SDS011;59082;50.658;4.608;2023-03-01T08:33:43;11.52;;;9.18;;
71296;SDS011;59082;50.658;4.608;2023-03-01T08:36:15;13.30;;;8.77;;
71296;SDS011;59082;50.658;4.608;2023-03-01T08:38:42;14.63;;;10.20;;
71296;SDS011;59082;50.658;4.608;2023-03-01T08:41:07;11.38;;;9.77;;
71296;SDS011;59082;50.658;4.608;2023-03-01T08:43:33;11.17;;;9.27;;
71296;SDS011;59082;50.658;4.608;2023-03-01T08:45:58;14.23;;;11.33;;
71296;SDS011;59082;50.658;4.608;2023-03-01T08:48:24;11.75;;;10.55;;
71296;SDS011;59082;50.658;4.608;2023-03-01T08:50:50;13.23;;;10.53;;
71296;SDS011;59082;50.658;4.608;2023-03-01T08:53:16;11.57;;;10.15;;
71296;SDS011;59082;50.658;4.608;2023-03-01T08:55:41;11.13;;;10.03;;
71296;SDS011;59082;50.658;4.608;2023-03-01T08:58:07;10.93;;;9.88;;
71296;SDS011;59082;50.658;4.608;2023-03-01T09:00:32;14.97;;;10.13;;
71296;SDS011;59082;50.658;4.608;2023-03-01T09:03:00;12.10;;;10.88;;
71296;SDS011;59082;50.658;4.608;2023-03-01T09:05:25;14.35;;;12.00;;
71296;SDS011;59082;50.658;4.608;2023-03-01T09:07:51;11.53;;;10.23;;
71296;SDS011;59082;50.658;4.608;2023-03-01T09:10:17;12.37;;;10.53;;
71296;SDS011;59082;50.658;4.608;2023-03-01T09:12:42;13.80;;;10.80;;
71296;SDS011;59082;50.658;4.608;2023-03-01T09:15:08;12.13;;;10.90;;
71296;SDS011;59082;50.658;4.608;2023-03-01T09:17:37;12.63;;;11.32;;
71296;SDS011;59082;50.658;4.608;2023-03-01T09:20:03;13.80;;;11.97;;
71296;SDS011;59082;50.658;4.608;2023-03-01T09:22:32;13.68;;;12.27;;
71296;SDS011;59082;50.658;4.608;2023-03-01T09:24:59;13.38;;;11.18;;
71296;SDS011;59082;50.658;4.608;2023-03-01T09:27:25;13.02;;;11.60;;
71296;SDS011;59082;50.658;4.608;2023-03-01T09:29:50;15.77;;;11.63;;
71296;SDS011;59082;50.658;4.608;2023-03-01T09:32:16;13.20;;;10.52;;
71296;SDS011;59082;50.658;4.608;2023-03-01T09:34:41;13.30;;;11.13;;
71296;SDS011;59082;50.658;4.608;2023-03-01T09:37:26;10.35;;;9.10;;
71296;SDS011;59082;50.658;4.608;2023-03-01T09:39:51;13.05;;;11.82;;
71296;SDS011;59082;50.658;4.608;2023-03-01T09:42:17;14.17;;;11.07;;
71296;SDS011;59082;50.658;4.608;2023-03-01T09:44:45;11.97;;;10.73;;
71296;SDS011;59082;50.658;4.608;2023-03-01T09:47:19;12.93;;;10.45;;
71296;SDS011;59082;50.658;4.608;2023-03-01T09:52:42;13.15;;;11.85;;
71296;SDS011;59082;50.658;4.608;2023-03-01T09:55:10;13.30;;;11.45;;
71296;SDS011;59082;50.658;4.608;2023-03-01T09:57:43;14.63;;;11.10;;
71296;SDS011;59082;50.658;4.608;2023-03-01T10:00:26;13.18;;;11.85;;
71296;SDS011;59082;50.658;4.608;2023-03-01T10:03:08;13.52;;;12.13;;
71296;SDS011;59082;50.658;4.608;2023-03-01T10:14:03;13.35;;;12.05;;
71296;SDS011;59082;50.658;4.608;2023-03-01T10:16:52;14.80;;;13.30;;
71296;SDS011;59082;50.658;4.608;2023-03-01T10:19:40;15.90;;;12.13;;
71296;SDS011;59082;50.658;4.608;2023-03-01T10:22:21;13.95;;;12.68;;
71296;SDS011;59082;50.658;4.608;2023-03-01T10:24:53;12.63;;;11.33;;
71296;SDS011;59082;50.658;4.608;2023-03-01T10:29:56;13.95;;;11.45;;
71296;SDS011;59082;50.658;4.608;2023-03-01T10:32:45;13.77;;;12.52;;
71296;SDS011;59082;50.658;4.608;2023-03-01T10:35:18;13.65;;;12.23;;
71296;SDS011;59082;50.658;4.608;2023-03-01T10:37:57;14.20;;;11.37;;
71296;SDS011;59082;50.658;4.608;2023-03-01T10:40:23;12.90;;;11.60;;
71296;SDS011;59082;50.658;4.608;2023-03-01T10:42:48;13.03;;;11.80;;
71296;SDS011;59082;50.658;4.608;2023-03-01T10:45:34;14.53;;;11.83;;
71296;SDS011;59082;50.658;4.608;2023-03-01T10:48:14;17.10;;;12.05;;
71296;SDS011;59082;50.658;4.608;2023-03-01T10:50:46;13.80;;;12.45;;
71296;SDS011;59082;50.658;4.608;2023-03-01T10:55:46;11.38;;;10.15;;
71296;SDS011;59082;50.658;4.608;2023-03-01T10:58:16;12.63;;;11.33;;
71296;SDS011;59082;50.658;4.608;2023-03-01T11:03:38;12.63;;;11.27;;
71296;SDS011;59082;50.658;4.608;2023-03-01T11:08:37;12.32;;;11.13;;
71296;SDS011;59082;50.658;4.608;2023-03-01T11:13:37;13.20;;;11.88;;
71296;SDS011;59082;50.658;4.608;2023-03-01T11:16:29;12.57;;;11.25;;
71296;SDS011;59082;50.658;4.608;2023-03-01T11:18:59;14.13;;;11.00;;
71296;SDS011;59082;50.658;4.608;2023-03-01T11:21:29;12.15;;;11.05;;
71296;SDS011;59082;50.658;4.608;2023-03-01T11:23:59;12.45;;;11.30;;
71296;SDS011;59082;50.658;4.608;2023-03-01T11:26:29;12.30;;;11.18;;
71296;SDS011;59082;50.658;4.608;2023-03-01T11:29:00;13.48;;;12.18;;
71296;SDS011;59082;50.658;4.608;2023-03-01T11:31:29;13.17;;;11.80;;
71296;SDS011;59082;50.658;4.608;2023-03-01T11:39:29;13.40;;;11.98;;
71296;SDS011;59082;50.658;4.608;2023-03-01T11:42:05;13.50;;;12.32;;
71296;SDS011;59082;50.658;4.608;2023-03-01T11:44:36;13.37;;;12.07;;
71296;SDS011;59082;50.658;4.608;2023-03-01T11:57:51;13.23;;;11.85;;
71296;SDS011;59082;50.658;4.608;2023-03-01T12:14:17;11.30;;;10.18;;
71296;SDS011;59082;50.658;4.608;2023-03-01T12:43:32;11.98;;;9.73;;
71296;SDS011;59082;50.658;4.608;2023-03-01T12:46:21;11.67;;;9.50;;
71296;SDS011;59082;50.658;4.608;2023-03-01T12:51:17;12.00;;;8.95;;
71296;SDS011;59082;50.658;4.608;2023-03-01T12:53:48;11.73;;;8.55;;
71296;SDS011;59082;50.658;4.608;2023-03-01T12:56:19;11.40;;;8.55;;
71296;SDS011;59082;50.658;4.608;2023-03-01T13:11:49;11.10;;;9.13;;
71296;SDS011;59082;50.658;4.608;2023-03-01T13:16:50;14.57;;;8.65;;
71296;SDS011;59082;50.658;4.608;2023-03-01T13:19:23;13.27;;;8.35;;
71296;SDS011;59082;50.658;4.608;2023-03-01T13:21:51;12.17;;;8.47;;
71296;SDS011;59082;50.658;4.608;2023-03-01T13:24:29;13.02;;;9.85;;
71296;SDS011;59082;50.658;4.608;2023-03-01T13:32:25;11.30;;;9.77;;
71296;SDS011;59082;50.658;4.608;2023-03-01T13:35:01;13.13;;;10.03;;
71296;SDS011;59082;50.658;4.608;2023-03-01T13:37:36;14.10;;;10.18;;
71296;SDS011;59082;50.658;4.608;2023-03-01T13:40:04;14.77;;;11.23;;
71296;SDS011;59082;50.658;4.608;2023-03-01T13:42:52;14.52;;;11.27;;
71296;SDS011;59082;50.658;4.608;2023-03-01T13:45:20;13.88;;;10.88;;
71296;SDS011;59082;50.658;4.608;2023-03-01T13:48:02;14.63;;;11.57;;
71296;SDS011;59082;50.658;4.608;2023-03-01T13:50:51;15.43;;;12.40;;
71296;SDS011;59082;50.658;4.608;2023-03-01T13:53:23;14.60;;;11.57;;
71296;SDS011;59082;50.658;4.608;2023-03-01T13:55:52;14.10;;;10.52;;
71296;SDS011;59082;50.658;4.608;2023-03-01T13:58:30;15.73;;;10.80;;
71296;SDS011;59082;50.658;4.608;2023-03-01T14:01:02;13.20;;;10.87;;
71296;SDS011;59082;50.658;4.608;2023-03-01T14:03:30;14.18;;;11.20;;
71296;SDS011;59082;50.658;4.608;2023-03-01T14:06:00;14.32;;;10.07;;
71296;SDS011;59082;50.658;4.608;2023-03-01T14:08:32;13.88;;;9.65;;
71296;SDS011;59082;50.658;4.608;2023-03-01T14:14:01;9.97;;;8.20;;
71296;SDS011;59082;50.658;4.608;2023-03-01T14:19:26;11.73;;;8.68;;
71296;SDS011;59082;50.658;4.608;2023-03-01T14:22:40;10.63;;;6.95;;
71296;SDS011;59082;50.658;4.608;2023-03-01T14:24:50;10.05;;;8.25;;
71296;SDS011;59082;50.658;4.608;2023-03-01T14:27:19;10.13;;;7.47;;
71296;SDS011;59082;50.658;4.608;2023-03-01T14:29:55;10.95;;;8.10;;
71296;SDS011;59082;50.658;4.608;2023-03-01T14:32:27;11.02;;;7.25;;
71296;SDS011;59082;50.658;4.608;2023-03-01T14:34:53;12.65;;;7.93;;
71296;SDS011;59082;50.658;4.608;2023-03-01T14:39:52;8.77;;;6.90;;
71296;SDS011;59082;50.658;4.608;2023-03-01T14:42:21;10.93;;;7.63;;
71296;SDS011;59082;50.658;4.608;2023-03-01T14:44:51;10.80;;;7.43;;
71296;SDS011;59082;50.658;4.608;2023-03-01T14:47:28;7.97;;;6.63;;
71296;SDS011;59082;50.658;4.608;2023-03-01T14:49:57;10.45;;;7.05;;
71296;SDS011;59082;50.658;4.608;2023-03-01T14:52:39;7.70;;;6.00;;
71296;SDS011;59082;50.658;4.608;2023-03-01T14:55:15;10.63;;;7.13;;
71296;SDS011;59082;50.658;4.608;2023-03-01T14:57:44;11.88;;;7.50;;
71296;SDS011;59082;50.658;4.608;2023-03-01T15:00:33;10.38;;;7.40;;
71296;SDS011;59082;50.658;4.608;2023-03-01T15:03:04;12.18;;;7.13;;
71296;SDS011;59082;50.658;4.608;2023-03-01T15:05:45;10.37;;;7.37;;
71296;SDS011;59082;50.658;4.608;2023-03-01T15:08:16;12.27;;;7.03;;
71296;SDS011;59082;50.658;4.608;2023-03-01T15:10:55;12.25;;;8.02;;
71296;SDS011;59082;50.658;4.608;2023-03-01T15:13:23;11.05;;;8.00;;
71296;SDS011;59082;50.658;4.608;2023-03-01T15:15:51;17.63;;;8.97;;
71296;SDS011;59082;50.658;4.608;2023-03-01T15:18:26;11.43;;;8.93;;
71296;SDS011;59082;50.658;4.608;2023-03-01T15:20:53;15.40;;;9.60;;
71296;SDS011;59082;50.658;4.608;2023-03-01T15:23:27;10.60;;;8.32;;
71296;SDS011;59082;50.658;4.608;2023-03-01T15:25:55;14.75;;;8.50;;
71296;SDS011;59082;50.658;4.608;2023-03-01T15:28:26;14.27;;;8.50;;
71296;SDS011;59082;50.658;4.608;2023-03-01T15:31:00;10.10;;;8.00;;
71296;SDS011;59082;50.658;4.608;2023-03-01T15:33:31;14.55;;;8.07;;
71296;SDS011;59082;50.658;4.608;2023-03-01T15:36:03;10.93;;;7.88;;
71296;SDS011;59082;50.658;4.608;2023-03-01T15:41:30;12.13;;;8.57;;
71296;SDS011;59082;50.658;4.608;2023-03-01T15:43:57;11.60;;;8.90;;
71296;SDS011;59082;50.658;4.608;2023-03-01T15:46:38;10.38;;;8.68;;
71296;SDS011;59082;50.658;4.608;2023-03-01T15:49:05;12.43;;;8.43;;
71296;SDS011;59082;50.658;4.608;2023-03-01T15:51:50;11.67;;;7.90;;
71296;SDS011;59082;50.658;4.608;2023-03-01T15:54:19;9.68;;;7.47;;
71296;SDS011;59082;50.658;4.608;2023-03-01T15:56:48;11.10;;;8.10;;
71296;SDS011;59082;50.658;4.608;2023-03-01T15:59:15;11.77;;;8.60;;
71296;SDS011;59082;50.658;4.608;2023-03-01T16:01:41;12.25;;;8.52;;
71296;SDS011;59082;50.658;4.608;2023-03-01T16:04:17;12.97;;;8.00;;
71296;SDS011;59082;50.658;4.608;2023-03-01T16:06:48;10.88;;;7.53;;
71296;SDS011;59082;50.658;4.608;2023-03-01T16:09:22;11.73;;;7.85;;
71296;SDS011;59082;50.658;4.608;2023-03-01T16:11:48;11.13;;;8.38;;
71296;SDS011;59082;50.658;4.608;2023-03-01T16:14:14;11.02;;;7.88;;
71296;SDS011;59082;50.658;4.608;2023-03-01T16:16:41;10.97;;;7.10;;
71296;SDS011;59082;50.658;4.608;2023-03-01T16:19:07;10.32;;;7.78;;
71296;SDS011;59082;50.658;4.608;2023-03-01T16:21:33;9.73;;;6.87;;
71296;SDS011;59082;50.658;4.608;2023-03-01T16:23:58;10.30;;;8.50;;
71296;SDS011;59082;50.658;4.608;2023-03-01T16:26:24;10.30;;;8.67;;
71296;SDS011;59082;50.658;4.608;2023-03-01T16:28:49;14.20;;;9.80;;
71296;SDS011;59082;50.658;4.608;2023-03-01T16:31:18;12.37;;;9.50;;
71296;SDS011;59082;50.658;4.608;2023-03-01T16:33:44;14.13;;;9.77;;
71296;SDS011;59082;50.658;4.608;2023-03-01T16:36:14;11.18;;;8.82;;
71296;SDS011;59082;50.658;4.608;2023-03-01T16:38:41;11.98;;;10.25;;
71296;SDS011;59082;50.658;4.608;2023-03-01T16:41:14;14.17;;;10.00;;
71296;SDS011;59082;50.658;4.608;2023-03-01T16:43:41;11.40;;;9.13;;
71296;SDS011;59082;50.658;4.608;2023-03-01T16:46:14;15.50;;;10.35;;
71296;SDS011;59082;50.658;4.608;2023-03-01T16:48:58;14.35;;;10.13;;